sensor_id;sensor_type;location;lat;lon;timestamp;temperature;humidity
14577;DHT22;7375;46.072;14.470;2023-05-10T00:01:50;21.00;60.90
14577;DHT22;7375;46.072;14.470;2023-05-10T00:04:17;21.00;60.90
14577;DHT22;7375;46.072;14.470;2023-05-10T00:06:44;21.00;60.90
14577;DHT22;7375;46.072;14.470;2023-05-10T00:09:10;21.00;61.50
14577;DHT22;7375;46.072;14.470;2023-05-10T00:11:37;21.00;60.90
14577;DHT22;7375;46.072;14.470;2023-05-10T00:14:04;21.00;61.50
14577;DHT22;7375;46.072;14.470;2023-05-10T00:16:30;21.00;60.90
14577;DHT22;7375;46.072;14.470;2023-05-10T00:18:59;21.00;61.00
14577;DHT22;7375;46.072;14.470;2023-05-10T00:21:25;21.00;61.00
14577;DHT22;7375;46.072;14.470;2023-05-10T00:23:53;21.00;61.00
14577;DHT22;7375;46.072;14.470;2023-05-10T00:26:22;21.00;61.10
14577;DHT22;7375;46.072;14.470;2023-05-10T00:28:49;21.00;61.10
14577;DHT22;7375;46.072;14.470;2023-05-10T00:31:16;21.00;61.20
14577;DHT22;7375;46.072;14.470;2023-05-10T00:33:42;21.00;61.10
14577;DHT22;7375;46.072;14.470;2023-05-10T00:36:11;21.00;61.20
14577;DHT22;7375;46.072;14.470;2023-05-10T00:38:37;21.00;61.20
14577;DHT22;7375;46.072;14.470;2023-05-10T00:41:04;21.00;61.10
14577;DHT22;7375;46.072;14.470;2023-05-10T00:43:31;21.00;61.10
14577;DHT22;7375;46.072;14.470;2023-05-10T00:45:57;20.90;61.20
14577;DHT22;7375;46.072;14.470;2023-05-10T00:48:25;20.90;61.10
14577;DHT22;7375;46.072;14.470;2023-05-10T00:50:51;20.90;61.10
14577;DHT22;7375;46.072;14.470;2023-05-10T00:53:19;20.90;61.00
14577;DHT22;7375;46.072;14.470;2023-05-10T00:55:46;20.90;61.10
14577;DHT22;7375;46.072;14.470;2023-05-10T00:58:13;20.90;61.00
14577;DHT22;7375;46.072;14.470;2023-05-10T01:00:41;20.90;61.00
14577;DHT22;7375;46.072;14.470;2023-05-10T01:03:09;20.90;61.00
14577;DHT22;7375;46.072;14.470;2023-05-10T01:05:36;20.90;61.10
14577;DHT22;7375;46.072;14.470;2023-05-10T01:08:02;20.90;61.10
14577;DHT22;7375;46.072;14.470;2023-05-10T01:10:30;20.90;61.10
14577;DHT22;7375;46.072;14.470;2023-05-10T01:12:58;20.90;61.10
14577;DHT22;7375;46.072;14.470;2023-05-10T01:15:25;20.90;61.10
14577;DHT22;7375;46.072;14.470;2023-05-10T01:17:52;20.90;61.10
14577;DHT22;7375;46.072;14.470;2023-05-10T01:20:19;20.90;61.10
14577;DHT22;7375;46.072;14.470;2023-05-10T01:23:04;20.90;61.10
14577;DHT22;7375;46.072;14.470;2023-05-10T01:25:43;20.90;61.10
14577;DHT22;7375;46.072;14.470;2023-05-10T01:28:20;20.90;61.20
14577;DHT22;7375;46.072;14.470;2023-05-10T01:31:00;20.90;61.10
14577;DHT22;7375;46.072;14.470;2023-05-10T01:33:31;20.90;61.10
14577;DHT22;7375;46.072;14.470;2023-05-10T01:36:01;20.90;61.20
14577;DHT22;7375;46.072;14.470;2023-05-10T01:38:34;20.90;61.20
14577;DHT22;7375;46.072;14.470;2023-05-10T01:41:06;20.90;61.20
14577;DHT22;7375;46.072;14.470;2023-05-10T01:43:38;20.90;61.20
14577;DHT22;7375;46.072;14.470;2023-05-10T01:46:07;20.90;61.20
14577;DHT22;7375;46.072;14.470;2023-05-10T01:48:38;20.90;61.20
14577;DHT22;7375;46.072;14.470;2023-05-10T01:51:08;20.90;61.20
14577;DHT22;7375;46.072;14.470;2023-05-10T01:53:36;20.90;61.80
14577;DHT22;7375;46.072;14.470;2023-05-10T01:56:04;20.90;61.30
14577;DHT22;7375;46.072;14.470;2023-05-10T01:58:31;20.90;61.20
14577;DHT22;7375;46.072;14.470;2023-05-10T02:00:59;20.90;61.20
14577;DHT22;7375;46.072;14.470;2023-05-10T02:03:27;20.80;61.10
14577;DHT22;7375;46.072;14.470;2023-05-10T02:05:56;20.80;61.20
14577;DHT22;7375;46.072;14.470;2023-05-10T02:08:23;20.80;61.20
14577;DHT22;7375;46.072;14.470;2023-05-10T02:10:51;20.80;61.20
14577;DHT22;7375;46.072;14.470;2023-05-10T02:13:18;20.80;61.20
14577;DHT22;7375;46.072;14.470;2023-05-10T02:15:46;20.80;61.20
14577;DHT22;7375;46.072;14.470;2023-05-10T02:18:14;20.90;61.40
14577;DHT22;7375;46.072;14.470;2023-05-10T02:20:42;20.80;61.30
14577;DHT22;7375;46.072;14.470;2023-05-10T02:23:11;20.80;61.30
14577;DHT22;7375;46.072;14.470;2023-05-10T02:25:38;20.80;61.30
14577;DHT22;7375;46.072;14.470;2023-05-10T02:28:06;20.80;61.20
14577;DHT22;7375;46.072;14.470;2023-05-10T02:30:34;20.80;61.40
14577;DHT22;7375;46.072;14.470;2023-05-10T02:33:01;20.80;61.30
14577;DHT22;7375;46.072;14.470;2023-05-10T02:35:28;20.80;61.30
14577;DHT22;7375;46.072;14.470;2023-05-10T02:37:55;20.80;61.20
14577;DHT22;7375;46.072;14.470;2023-05-10T02:40:24;20.80;61.20
14577;DHT22;7375;46.072;14.470;2023-05-10T02:42:52;20.80;61.20
14577;DHT22;7375;46.072;14.470;2023-05-10T02:45:22;20.80;61.20
14577;DHT22;7375;46.072;14.470;2023-05-10T02:47:50;20.80;61.20
14577;DHT22;7375;46.072;14.470;2023-05-10T02:50:16;20.80;61.10
14577;DHT22;7375;46.072;14.470;2023-05-10T02:52:44;20.80;61.20
14577;DHT22;7375;46.072;14.470;2023-05-10T02:55:12;20.80;61.20
14577;DHT22;7375;46.072;14.470;2023-05-10T02:57:43;20.80;61.20
14577;DHT22;7375;46.072;14.470;2023-05-10T03:00:11;20.80;61.20
14577;DHT22;7375;46.072;14.470;2023-05-10T03:02:38;20.80;61.20
14577;DHT22;7375;46.072;14.470;2023-05-10T03:05:05;20.80;61.20
14577;DHT22;7375;46.072;14.470;2023-05-10T03:07:32;20.80;61.20
14577;DHT22;7375;46.072;14.470;2023-05-10T03:10:00;20.80;61.20
14577;DHT22;7375;46.072;14.470;2023-05-10T03:12:29;20.80;61.20
14577;DHT22;7375;46.072;14.470;2023-05-10T03:15:03;20.80;61.20
14577;DHT22;7375;46.072;14.470;2023-05-10T03:17:32;20.80;61.20
14577;DHT22;7375;46.072;14.470;2023-05-10T03:20:03;20.80;61.20
14577;DHT22;7375;46.072;14.470;2023-05-10T03:22:31;20.80;61.20
14577;DHT22;7375;46.072;14.470;2023-05-10T03:24:58;20.80;61.10
14577;DHT22;7375;46.072;14.470;2023-05-10T03:27:27;20.80;61.20
14577;DHT22;7375;46.072;14.470;2023-05-10T03:29:54;20.80;61.10
14577;DHT22;7375;46.072;14.470;2023-05-10T03:32:22;20.80;61.10
14577;DHT22;7375;46.072;14.470;2023-05-10T03:34:49;20.80;61.10
14577;DHT22;7375;46.072;14.470;2023-05-10T03:37:16;20.80;61.20
14577;DHT22;7375;46.072;14.470;2023-05-10T03:39:43;20.80;61.10
14577;DHT22;7375;46.072;14.470;2023-05-10T03:42:09;20.80;61.10
14577;DHT22;7375;46.072;14.470;2023-05-10T03:44:37;20.80;61.00
14577;DHT22;7375;46.072;14.470;2023-05-10T03:47:04;20.80;61.00
14577;DHT22;7375;46.072;14.470;2023-05-10T03:49:32;20.80;61.10
14577;DHT22;7375;46.072;14.470;2023-05-10T03:51:59;20.80;61.20
14577;DHT22;7375;46.072;14.470;2023-05-10T03:54:26;20.80;61.30
14577;DHT22;7375;46.072;14.470;2023-05-10T03:56:53;20.80;61.10
14577;DHT22;7375;46.072;14.470;2023-05-10T03:59:19;20.80;61.10
14577;DHT22;7375;46.072;14.470;2023-05-10T04:01:46;20.80;61.00
14577;DHT22;7375;46.072;14.470;2023-05-10T04:04:12;20.90;61.10
14577;DHT22;7375;46.072;14.470;2023-05-10T04:06:41;20.90;61.00
14577;DHT22;7375;46.072;14.470;2023-05-10T04:09:07;20.80;61.00
14577;DHT22;7375;46.072;14.470;2023-05-10T04:11:34;20.90;61.00
14577;DHT22;7375;46.072;14.470;2023-05-10T04:14:01;20.90;61.00
14577;DHT22;7375;46.072;14.470;2023-05-10T04:16:27;20.90;61.00
14577;DHT22;7375;46.072;14.470;2023-05-10T04:18:54;20.90;61.00
14577;DHT22;7375;46.072;14.470;2023-05-10T04:21:21;20.90;60.90
14577;DHT22;7375;46.072;14.470;2023-05-10T04:23:49;20.90;60.80
14577;DHT22;7375;46.072;14.470;2023-05-10T04:26:15;20.90;60.90
14577;DHT22;7375;46.072;14.470;2023-05-10T04:28:42;20.90;60.90
14577;DHT22;7375;46.072;14.470;2023-05-10T04:31:09;20.90;60.80
14577;DHT22;7375;46.072;14.470;2023-05-10T04:33:36;21.00;61.00
14577;DHT22;7375;46.072;14.470;2023-05-10T04:36:03;21.00;61.60
14577;DHT22;7375;46.072;14.470;2023-05-10T04:38:30;21.00;60.90
14577;DHT22;7375;46.072;14.470;2023-05-10T04:41:04;21.00;61.00
14577;DHT22;7375;46.072;14.470;2023-05-10T04:43:32;21.00;61.00
14577;DHT22;7375;46.072;14.470;2023-05-10T04:45:58;21.00;60.90
14577;DHT22;7375;46.072;14.470;2023-05-10T04:48:25;21.00;61.00
14577;DHT22;7375;46.072;14.470;2023-05-10T04:50:52;21.00;60.90
14577;DHT22;7375;46.072;14.470;2023-05-10T04:53:18;21.00;60.80
14577;DHT22;7375;46.072;14.470;2023-05-10T04:55:45;21.00;60.90
14577;DHT22;7375;46.072;14.470;2023-05-10T04:58:14;21.10;60.80
14577;DHT22;7375;46.072;14.470;2023-05-10T05:00:41;21.10;60.80
14577;DHT22;7375;46.072;14.470;2023-05-10T05:03:08;21.10;60.80
14577;DHT22;7375;46.072;14.470;2023-05-10T05:05:34;21.10;60.90
14577;DHT22;7375;46.072;14.470;2023-05-10T05:08:01;21.10;60.70
14577;DHT22;7375;46.072;14.470;2023-05-10T05:10:28;21.10;60.70
14577;DHT22;7375;46.072;14.470;2023-05-10T05:12:55;21.10;60.60
14577;DHT22;7375;46.072;14.470;2023-05-10T05:15:23;21.20;60.80
14577;DHT22;7375;46.072;14.470;2023-05-10T05:17:50;21.20;61.10
14577;DHT22;7375;46.072;14.470;2023-05-10T05:20:16;21.20;60.90
14577;DHT22;7375;46.072;14.470;2023-05-10T05:22:44;21.30;60.70
14577;DHT22;7375;46.072;14.470;2023-05-10T05:25:11;21.30;60.10
14577;DHT22;7375;46.072;14.470;2023-05-10T05:27:38;21.30;59.30
14577;DHT22;7375;46.072;14.470;2023-05-10T05:30:05;21.30;59.20
14577;DHT22;7375;46.072;14.470;2023-05-10T05:32:33;21.30;58.90
14577;DHT22;7375;46.072;14.470;2023-05-10T05:35:00;21.30;59.30
14577;DHT22;7375;46.072;14.470;2023-05-10T05:37:27;21.30;59.50
14577;DHT22;7375;46.072;14.470;2023-05-10T05:39:53;21.30;59.40
14577;DHT22;7375;46.072;14.470;2023-05-10T05:42:20;21.30;59.00
14577;DHT22;7375;46.072;14.470;2023-05-10T05:44:47;21.30;58.80
14577;DHT22;7375;46.072;14.470;2023-05-10T05:47:14;21.30;59.60
14577;DHT22;7375;46.072;14.470;2023-05-10T05:49:42;21.30;60.40
14577;DHT22;7375;46.072;14.470;2023-05-10T05:52:12;21.30;60.60
14577;DHT22;7375;46.072;14.470;2023-05-10T05:54:39;21.30;61.00
14577;DHT22;7375;46.072;14.470;2023-05-10T05:57:06;21.30;60.70
14577;DHT22;7375;46.072;14.470;2023-05-10T05:59:33;21.40;60.60
14577;DHT22;7375;46.072;14.470;2023-05-10T06:02:02;21.40;60.30
14577;DHT22;7375;46.072;14.470;2023-05-10T06:04:32;21.40;60.30
14577;DHT22;7375;46.072;14.470;2023-05-10T06:07:00;21.40;60.40
14577;DHT22;7375;46.072;14.470;2023-05-10T06:09:27;21.40;60.20
14577;DHT22;7375;46.072;14.470;2023-05-10T06:11:53;21.40;59.90
14577;DHT22;7375;46.072;14.470;2023-05-10T06:14:20;21.40;59.80
14577;DHT22;7375;46.072;14.470;2023-05-10T06:16:47;21.40;59.80
14577;DHT22;7375;46.072;14.470;2023-05-10T06:19:14;21.40;59.80
14577;DHT22;7375;46.072;14.470;2023-05-10T06:21:42;21.40;59.70
14577;DHT22;7375;46.072;14.470;2023-05-10T06:24:11;21.40;59.60
14577;DHT22;7375;46.072;14.470;2023-05-10T06:26:38;21.50;59.60
14577;DHT22;7375;46.072;14.470;2023-05-10T06:29:05;21.50;59.00
14577;DHT22;7375;46.072;14.470;2023-05-10T06:31:32;20.80;47.60
14577;DHT22;7375;46.072;14.470;2023-05-10T06:33:59;20.30;47.40
14577;DHT22;7375;46.072;14.470;2023-05-10T06:36:28;19.90;48.20
14577;DHT22;7375;46.072;14.470;2023-05-10T06:38:56;19.70;48.70
14577;DHT22;7375;46.072;14.470;2023-05-10T06:41:29;19.40;49.30
14577;DHT22;7375;46.072;14.470;2023-05-10T06:43:57;19.30;49.70
14577;DHT22;7375;46.072;14.470;2023-05-10T06:46:27;19.10;49.90
14577;DHT22;7375;46.072;14.470;2023-05-10T06:48:56;18.90;50.10
14577;DHT22;7375;46.072;14.470;2023-05-10T06:51:23;18.80;50.30
14577;DHT22;7375;46.072;14.470;2023-05-10T06:53:50;18.70;50.60
14577;DHT22;7375;46.072;14.470;2023-05-10T06:56:17;18.60;50.00
14577;DHT22;7375;46.072;14.470;2023-05-10T06:58:48;18.50;49.50
14577;DHT22;7375;46.072;14.470;2023-05-10T07:01:15;18.40;49.90
14577;DHT22;7375;46.072;14.470;2023-05-10T07:03:45;18.40;50.10
14577;DHT22;7375;46.072;14.470;2023-05-10T07:06:12;18.30;49.90
14577;DHT22;7375;46.072;14.470;2023-05-10T07:08:39;18.30;49.90
14577;DHT22;7375;46.072;14.470;2023-05-10T07:11:06;18.30;49.70
14577;DHT22;7375;46.072;14.470;2023-05-10T07:13:36;18.20;49.80
14577;DHT22;7375;46.072;14.470;2023-05-10T07:16:06;18.20;50.30
14577;DHT22;7375;46.072;14.470;2023-05-10T07:18:33;18.10;49.60
14577;DHT22;7375;46.072;14.470;2023-05-10T07:21:00;18.10;49.90
14577;DHT22;7375;46.072;14.470;2023-05-10T07:23:27;18.10;50.40
14577;DHT22;7375;46.072;14.470;2023-05-10T07:25:57;18.00;50.40
14577;DHT22;7375;46.072;14.470;2023-05-10T07:28:24;18.00;49.70
14577;DHT22;7375;46.072;14.470;2023-05-10T07:30:54;18.00;49.40
14577;DHT22;7375;46.072;14.470;2023-05-10T07:33:23;17.90;49.70
14577;DHT22;7375;46.072;14.470;2023-05-10T07:35:49;17.90;50.00
14577;DHT22;7375;46.072;14.470;2023-05-10T07:38:17;17.90;50.20
14577;DHT22;7375;46.072;14.470;2023-05-10T07:40:43;18.00;50.50
14577;DHT22;7375;46.072;14.470;2023-05-10T07:43:10;18.00;49.60
14577;DHT22;7375;46.072;14.470;2023-05-10T07:45:37;18.00;48.90
14577;DHT22;7375;46.072;14.470;2023-05-10T07:48:04;18.00;48.90
14577;DHT22;7375;46.072;14.470;2023-05-10T07:50:35;18.00;49.00
14577;DHT22;7375;46.072;14.470;2023-05-10T07:53:02;18.00;49.80
14577;DHT22;7375;46.072;14.470;2023-05-10T07:55:29;17.90;50.00
14577;DHT22;7375;46.072;14.470;2023-05-10T07:57:58;18.00;50.50
14577;DHT22;7375;46.072;14.470;2023-05-10T08:00:26;18.10;50.30
14577;DHT22;7375;46.072;14.470;2023-05-10T08:02:56;18.30;50.80
14577;DHT22;7375;46.072;14.470;2023-05-10T08:05:23;18.50;51.10
14577;DHT22;7375;46.072;14.470;2023-05-10T08:07:51;18.70;51.40
14577;DHT22;7375;46.072;14.470;2023-05-10T08:10:18;18.80;51.60
14577;DHT22;7375;46.072;14.470;2023-05-10T08:12:45;18.90;51.70
14577;DHT22;7375;46.072;14.470;2023-05-10T08:15:12;19.00;51.70
14577;DHT22;7375;46.072;14.470;2023-05-10T08:17:39;19.20;51.90
14577;DHT22;7375;46.072;14.470;2023-05-10T08:20:07;19.20;51.90
14577;DHT22;7375;46.072;14.470;2023-05-10T08:22:34;19.40;52.10
14577;DHT22;7375;46.072;14.470;2023-05-10T08:25:02;19.40;52.00
14577;DHT22;7375;46.072;14.470;2023-05-10T08:27:29;19.50;52.20
14577;DHT22;7375;46.072;14.470;2023-05-10T08:29:56;19.60;52.20
14577;DHT22;7375;46.072;14.470;2023-05-10T08:32:23;19.70;52.30
14577;DHT22;7375;46.072;14.470;2023-05-10T08:34:50;19.70;52.30
14577;DHT22;7375;46.072;14.470;2023-05-10T08:37:18;19.80;52.40
14577;DHT22;7375;46.072;14.470;2023-05-10T08:39:45;19.90;52.50
14577;DHT22;7375;46.072;14.470;2023-05-10T08:42:15;19.90;52.50
14577;DHT22;7375;46.072;14.470;2023-05-10T08:44:43;20.00;52.60
14577;DHT22;7375;46.072;14.470;2023-05-10T08:47:10;20.00;52.60
14577;DHT22;7375;46.072;14.470;2023-05-10T08:49:38;20.10;52.70
14577;DHT22;7375;46.072;14.470;2023-05-10T08:52:05;20.10;52.00
14577;DHT22;7375;46.072;14.470;2023-05-10T08:54:32;20.10;51.60
14577;DHT22;7375;46.072;14.470;2023-05-10T08:57:00;20.20;50.90
14577;DHT22;7375;46.072;14.470;2023-05-10T08:59:28;20.20;50.10
14577;DHT22;7375;46.072;14.470;2023-05-10T09:01:56;20.30;50.10
14577;DHT22;7375;46.072;14.470;2023-05-10T09:04:35;20.30;49.40
14577;DHT22;7375;46.072;14.470;2023-05-10T09:07:01;20.30;49.60
14577;DHT22;7375;46.072;14.470;2023-05-10T09:09:29;20.40;50.40
14577;DHT22;7375;46.072;14.470;2023-05-10T09:11:56;20.40;51.30
14577;DHT22;7375;46.072;14.470;2023-05-10T09:14:23;20.50;51.40
14577;DHT22;7375;46.072;14.470;2023-05-10T09:16:55;20.50;51.50
14577;DHT22;7375;46.072;14.470;2023-05-10T09:19:25;20.60;51.60
14577;DHT22;7375;46.072;14.470;2023-05-10T09:21:52;20.50;51.50
14577;DHT22;7375;46.072;14.470;2023-05-10T09:24:20;20.60;51.50
14577;DHT22;7375;46.072;14.470;2023-05-10T09:26:54;20.60;51.50
14577;DHT22;7375;46.072;14.470;2023-05-10T09:29:23;20.70;51.60
14577;DHT22;7375;46.072;14.470;2023-05-10T09:31:51;20.70;52.20
14577;DHT22;7375;46.072;14.470;2023-05-10T09:34:22;20.70;51.70
14577;DHT22;7375;46.072;14.470;2023-05-10T09:36:55;20.70;51.70
14577;DHT22;7375;46.072;14.470;2023-05-10T09:39:30;20.70;51.80
14577;DHT22;7375;46.072;14.470;2023-05-10T09:41:57;20.80;52.40
14577;DHT22;7375;46.072;14.470;2023-05-10T09:44:25;20.80;52.90
14577;DHT22;7375;46.072;14.470;2023-05-10T09:46:52;20.80;53.30
14577;DHT22;7375;46.072;14.470;2023-05-10T09:49:21;20.90;53.70
14577;DHT22;7375;46.072;14.470;2023-05-10T09:51:59;20.90;53.80
14577;DHT22;7375;46.072;14.470;2023-05-10T09:54:30;20.90;53.80
14577;DHT22;7375;46.072;14.470;2023-05-10T09:56:58;20.90;53.80
14577;DHT22;7375;46.072;14.470;2023-05-10T09:59:25;21.00;54.00
14577;DHT22;7375;46.072;14.470;2023-05-10T10:01:53;21.00;54.00
14577;DHT22;7375;46.072;14.470;2023-05-10T10:04:24;21.00;54.00
14577;DHT22;7375;46.072;14.470;2023-05-10T10:07:00;21.00;54.00
14577;DHT22;7375;46.072;14.470;2023-05-10T10:09:28;21.00;54.00
14577;DHT22;7375;46.072;14.470;2023-05-10T10:11:55;21.10;54.00
14577;DHT22;7375;46.072;14.470;2023-05-10T10:14:23;21.10;54.00
14577;DHT22;7375;46.072;14.470;2023-05-10T10:16:50;21.10;54.00
14577;DHT22;7375;46.072;14.470;2023-05-10T10:19:18;21.10;54.00
14577;DHT22;7375;46.072;14.470;2023-05-10T10:21:46;21.10;54.00
14577;DHT22;7375;46.072;14.470;2023-05-10T10:24:13;21.20;54.10
14577;DHT22;7375;46.072;14.470;2023-05-10T10:26:40;21.20;54.10
14577;DHT22;7375;46.072;14.470;2023-05-10T10:29:10;21.20;54.00
14577;DHT22;7375;46.072;14.470;2023-05-10T10:31:45;21.20;54.10
14577;DHT22;7375;46.072;14.470;2023-05-10T10:34:17;21.20;54.10
14577;DHT22;7375;46.072;14.470;2023-05-10T10:36:49;21.20;54.10
14577;DHT22;7375;46.072;14.470;2023-05-10T10:39:17;21.20;54.10
14577;DHT22;7375;46.072;14.470;2023-05-10T10:41:49;21.20;54.00
14577;DHT22;7375;46.072;14.470;2023-05-10T10:44:23;21.20;54.00
14577;DHT22;7375;46.072;14.470;2023-05-10T10:47:00;21.30;54.10
14577;DHT22;7375;46.072;14.470;2023-05-10T10:49:28;21.30;54.10
14577;DHT22;7375;46.072;14.470;2023-05-10T10:54:42;21.30;54.20
14577;DHT22;7375;46.072;14.470;2023-05-10T10:57:14;21.30;54.10
14577;DHT22;7375;46.072;14.470;2023-05-10T10:59:41;21.30;54.10
14577;DHT22;7375;46.072;14.470;2023-05-10T11:02:09;21.30;54.10
14577;DHT22;7375;46.072;14.470;2023-05-10T11:04:42;21.30;54.10
14577;DHT22;7375;46.072;14.470;2023-05-10T11:07:18;21.30;54.10
14577;DHT22;7375;46.072;14.470;2023-05-10T11:09:47;21.40;54.10
14577;DHT22;7375;46.072;14.470;2023-05-10T11:12:14;21.40;54.10
14577;DHT22;7375;46.072;14.470;2023-05-10T11:14:41;21.40;54.10
14577;DHT22;7375;46.072;14.470;2023-05-10T11:17:23;21.40;54.10
14577;DHT22;7375;46.072;14.470;2023-05-10T11:20:06;21.40;54.10
14577;DHT22;7375;46.072;14.470;2023-05-10T11:22:47;21.40;54.10
14577;DHT22;7375;46.072;14.470;2023-05-10T11:25:17;21.40;54.10
14577;DHT22;7375;46.072;14.470;2023-05-10T11:27:44;21.40;54.10
14577;DHT22;7375;46.072;14.470;2023-05-10T11:30:12;21.40;54.10
14577;DHT22;7375;46.072;14.470;2023-05-10T11:32:39;21.40;54.10
14577;DHT22;7375;46.072;14.470;2023-05-10T11:35:06;21.40;54.10
14577;DHT22;7375;46.072;14.470;2023-05-10T11:37:34;21.50;54.20
14577;DHT22;7375;46.072;14.470;2023-05-10T11:40:00;21.50;54.20
14577;DHT22;7375;46.072;14.470;2023-05-10T11:42:30;21.50;54.20
14577;DHT22;7375;46.072;14.470;2023-05-10T11:45:00;21.50;54.20
14577;DHT22;7375;46.072;14.470;2023-05-10T11:47:28;21.50;54.20
14577;DHT22;7375;46.072;14.470;2023-05-10T11:49:55;21.50;54.20
14577;DHT22;7375;46.072;14.470;2023-05-10T11:52:22;21.50;54.20
14577;DHT22;7375;46.072;14.470;2023-05-10T11:54:53;21.50;54.20
14577;DHT22;7375;46.072;14.470;2023-05-10T11:57:21;21.50;54.20
14577;DHT22;7375;46.072;14.470;2023-05-10T11:59:54;21.50;54.20
14577;DHT22;7375;46.072;14.470;2023-05-10T12:02:21;21.50;54.20
14577;DHT22;7375;46.072;14.470;2023-05-10T12:04:48;21.50;54.20
14577;DHT22;7375;46.072;14.470;2023-05-10T12:07:19;21.50;54.20
14577;DHT22;7375;46.072;14.470;2023-05-10T12:12:34;21.60;54.30
14577;DHT22;7375;46.072;14.470;2023-05-10T12:15:03;21.60;54.30
14577;DHT22;7375;46.072;14.470;2023-05-10T12:17:31;21.60;54.30
14577;DHT22;7375;46.072;14.470;2023-05-10T12:19:58;21.60;54.30
14577;DHT22;7375;46.072;14.470;2023-05-10T12:22:25;21.60;54.30
14577;DHT22;7375;46.072;14.470;2023-05-10T12:24:53;21.60;54.30
14577;DHT22;7375;46.072;14.470;2023-05-10T12:27:23;21.60;54.30
14577;DHT22;7375;46.072;14.470;2023-05-10T12:29:50;21.60;54.20
14577;DHT22;7375;46.072;14.470;2023-05-10T12:32:19;21.60;54.20
14577;DHT22;7375;46.072;14.470;2023-05-10T12:34:46;21.60;54.20
14577;DHT22;7375;46.072;14.470;2023-05-10T12:37:13;21.60;54.20
14577;DHT22;7375;46.072;14.470;2023-05-10T12:39:41;21.60;54.20
14577;DHT22;7375;46.072;14.470;2023-05-10T12:42:08;21.60;54.20
14577;DHT22;7375;46.072;14.470;2023-05-10T12:44:35;21.60;54.20
14577;DHT22;7375;46.072;14.470;2023-05-10T12:47:01;21.60;54.20
14577;DHT22;7375;46.072;14.470;2023-05-10T12:49:30;21.60;54.20
14577;DHT22;7375;46.072;14.470;2023-05-10T12:51:56;21.60;54.30
14577;DHT22;7375;46.072;14.470;2023-05-10T12:54:23;21.60;54.20
14577;DHT22;7375;46.072;14.470;2023-05-10T12:56:50;21.60;54.30
14577;DHT22;7375;46.072;14.470;2023-05-10T12:59:17;21.60;54.30
14577;DHT22;7375;46.072;14.470;2023-05-10T13:01:44;21.70;54.40
14577;DHT22;7375;46.072;14.470;2023-05-10T13:04:11;21.70;54.40
14577;DHT22;7375;46.072;14.470;2023-05-10T13:06:39;21.60;54.30
14577;DHT22;7375;46.072;14.470;2023-05-10T13:09:06;21.70;54.40
14577;DHT22;7375;46.072;14.470;2023-05-10T13:11:33;21.70;54.40
14577;DHT22;7375;46.072;14.470;2023-05-10T13:14:00;21.70;54.40
14577;DHT22;7375;46.072;14.470;2023-05-10T13:16:28;21.70;54.40
14577;DHT22;7375;46.072;14.470;2023-05-10T13:18:55;21.70;54.40
14577;DHT22;7375;46.072;14.470;2023-05-10T13:21:21;21.70;54.40
14577;DHT22;7375;46.072;14.470;2023-05-10T13:23:51;21.70;54.40
14577;DHT22;7375;46.072;14.470;2023-05-10T13:26:18;21.70;54.50
14577;DHT22;7375;46.072;14.470;2023-05-10T13:28:45;21.70;54.50
14577;DHT22;7375;46.072;14.470;2023-05-10T13:31:12;21.70;54.50
14577;DHT22;7375;46.072;14.470;2023-05-10T13:33:39;21.70;54.50
14577;DHT22;7375;46.072;14.470;2023-05-10T13:36:06;21.70;54.60
14577;DHT22;7375;46.072;14.470;2023-05-10T13:38:33;21.70;54.60
14577;DHT22;7375;46.072;14.470;2023-05-10T13:41:01;21.70;54.50
14577;DHT22;7375;46.072;14.470;2023-05-10T13:43:28;21.70;54.50
14577;DHT22;7375;46.072;14.470;2023-05-10T13:45:58;21.70;54.60
14577;DHT22;7375;46.072;14.470;2023-05-10T13:48:28;21.70;54.60
14577;DHT22;7375;46.072;14.470;2023-05-10T13:50:57;21.70;54.60
14577;DHT22;7375;46.072;14.470;2023-05-10T13:53:24;21.70;54.50
14577;DHT22;7375;46.072;14.470;2023-05-10T13:55:51;21.70;54.50
14577;DHT22;7375;46.072;14.470;2023-05-10T13:58:21;21.70;54.50
14577;DHT22;7375;46.072;14.470;2023-05-10T14:00:49;21.70;54.50
14577;DHT22;7375;46.072;14.470;2023-05-10T14:03:16;21.70;54.50
14577;DHT22;7375;46.072;14.470;2023-05-10T14:05:43;21.70;54.50
14577;DHT22;7375;46.072;14.470;2023-05-10T14:08:12;21.70;54.50
14577;DHT22;7375;46.072;14.470;2023-05-10T14:10:39;21.70;54.50
14577;DHT22;7375;46.072;14.470;2023-05-10T14:13:09;21.70;54.50
14577;DHT22;7375;46.072;14.470;2023-05-10T14:15:37;21.70;54.40
14577;DHT22;7375;46.072;14.470;2023-05-10T14:18:04;21.70;54.50
14577;DHT22;7375;46.072;14.470;2023-05-10T14:20:31;21.70;54.50
14577;DHT22;7375;46.072;14.470;2023-05-10T14:22:59;21.70;54.50
14577;DHT22;7375;46.072;14.470;2023-05-10T14:25:26;21.70;54.60
14577;DHT22;7375;46.072;14.470;2023-05-10T14:27:53;21.70;54.70
14577;DHT22;7375;46.072;14.470;2023-05-10T14:30:20;21.70;54.90
14577;DHT22;7375;46.072;14.470;2023-05-10T14:32:48;21.70;55.00
14577;DHT22;7375;46.072;14.470;2023-05-10T14:35:15;21.70;55.00
14577;DHT22;7375;46.072;14.470;2023-05-10T14:37:45;21.70;55.10
14577;DHT22;7375;46.072;14.470;2023-05-10T14:40:12;21.70;55.10
14577;DHT22;7375;46.072;14.470;2023-05-10T14:42:40;21.70;55.20
14577;DHT22;7375;46.072;14.470;2023-05-10T14:45:07;21.70;55.30
14577;DHT22;7375;46.072;14.470;2023-05-10T14:47:34;21.80;55.50
14577;DHT22;7375;46.072;14.470;2023-05-10T14:50:03;21.80;55.70
14577;DHT22;7375;46.072;14.470;2023-05-10T14:52:30;21.70;55.80
14577;DHT22;7375;46.072;14.470;2023-05-10T14:54:56;21.70;56.10
14577;DHT22;7375;46.072;14.470;2023-05-10T14:57:24;21.80;56.40
14577;DHT22;7375;46.072;14.470;2023-05-10T14:59:51;21.70;56.40
14577;DHT22;7375;46.072;14.470;2023-05-10T15:02:17;21.70;56.50
14577;DHT22;7375;46.072;14.470;2023-05-10T15:04:44;21.70;56.40
14577;DHT22;7375;46.072;14.470;2023-05-10T15:07:12;21.70;56.40
14577;DHT22;7375;46.072;14.470;2023-05-10T15:09:41;21.70;56.40
14577;DHT22;7375;46.072;14.470;2023-05-10T15:12:08;21.70;56.40
14577;DHT22;7375;46.072;14.470;2023-05-10T15:14:35;21.70;57.20
14577;DHT22;7375;46.072;14.470;2023-05-10T15:17:02;21.70;57.30
14577;DHT22;7375;46.072;14.470;2023-05-10T15:19:29;21.70;57.10
14577;DHT22;7375;46.072;14.470;2023-05-10T15:21:56;21.80;56.90
14577;DHT22;7375;46.072;14.470;2023-05-10T15:24:24;21.70;56.90
14577;DHT22;7375;46.072;14.470;2023-05-10T15:26:51;21.70;57.00
14577;DHT22;7375;46.072;14.470;2023-05-10T15:29:17;21.70;56.80
14577;DHT22;7375;46.072;14.470;2023-05-10T15:31:47;21.70;56.90
14577;DHT22;7375;46.072;14.470;2023-05-10T15:34:14;21.70;56.90
14577;DHT22;7375;46.072;14.470;2023-05-10T15:36:41;21.70;57.00
14577;DHT22;7375;46.072;14.470;2023-05-10T15:39:08;21.70;57.10
14577;DHT22;7375;46.072;14.470;2023-05-10T15:41:36;21.70;57.10